sensor_id;sensor_type;location;lat;lon;timestamp;pressure;altitude;pressure_sealevel;temperature;humidity
33731;BME280;22931;48.636;9.000;2023-01-20T00:02:19;95271.25;;;1.27;61.33
33731;BME280;22931;48.636;9.000;2023-01-20T00:07:27;95265.31;;;1.26;62.37
33731;BME280;22931;48.636;9.000;2023-01-20T00:12:34;95274.81;;;1.31;62.05
33731;BME280;22931;48.636;9.000;2023-01-20T00:17:45;95275.28;;;1.33;61.58
33731;BME280;22931;48.636;9.000;2023-01-20T00:22:52;95281.81;;;1.30;61.72
33731;BME280;22931;48.636;9.000;2023-01-20T00:28:00;95284.56;;;1.34;61.52
33731;BME280;22931;48.636;9.000;2023-01-20T00:33:10;95293.91;;;1.35;61.67
33731;BME280;22931;48.636;9.000;2023-01-20T00:38:17;95292.84;;;1.36;61.79
33731;BME280;22931;48.636;9.000;2023-01-20T00:43:25;95300.63;;;1.36;61.70
33731;BME280;22931;48.636;9.000;2023-01-20T00:48:35;95305.81;;;1.36;62.09
33731;BME280;22931;48.636;9.000;2023-01-20T00:53:43;95313.56;;;1.50;62.36
33731;BME280;22931;48.636;9.000;2023-01-20T00:58:50;95318.66;;;1.41;62.03
33731;BME280;22931;48.636;9.000;2023-01-20T01:04:01;95317.91;;;1.41;61.82
33731;BME280;22931;48.636;9.000;2023-01-20T01:09:09;95322.59;;;1.39;62.17
33731;BME280;22931;48.636;9.000;2023-01-20T01:14:16;95331.41;;;1.38;62.07
33731;BME280;22931;48.636;9.000;2023-01-20T01:19:26;95336.31;;;1.39;62.22
33731;BME280;22931;48.636;9.000;2023-01-20T01:24:34;95342.72;;;1.42;62.15
33731;BME280;22931;48.636;9.000;2023-01-20T01:29:42;95348.69;;;1.42;62.39
33731;BME280;22931;48.636;9.000;2023-01-20T01:34:52;95350.97;;;1.44;61.84
33731;BME280;22931;48.636;9.000;2023-01-20T01:39:59;95356.94;;;1.44;62.41
33731;BME280;22931;48.636;9.000;2023-01-20T01:45:23;95366.63;;;1.52;62.63
33731;BME280;22931;48.636;9.000;2023-01-20T01:50:38;95368.28;;;1.48;62.45
33731;BME280;22931;48.636;9.000;2023-01-20T01:55:52;95360.31;;;1.45;62.19
33731;BME280;22931;48.636;9.000;2023-01-20T02:01:00;95360.97;;;1.37;61.83
33731;BME280;22931;48.636;9.000;2023-01-20T02:06:11;95369.63;;;1.32;62.08
33731;BME280;22931;48.636;9.000;2023-01-20T02:11:20;95369.22;;;1.25;62.08
33731;BME280;22931;48.636;9.000;2023-01-20T02:16:34;95369.69;;;1.27;62.51
33731;BME280;22931;48.636;9.000;2023-01-20T02:21:59;95374.63;;;1.28;63.17
33731;BME280;22931;48.636;9.000;2023-01-20T02:27:16;95375.97;;;1.26;62.53
33731;BME280;22931;48.636;9.000;2023-01-20T02:32:37;95388.69;;;1.22;62.26
33731;BME280;22931;48.636;9.000;2023-01-20T02:37:53;95390.13;;;1.15;62.30
33731;BME280;22931;48.636;9.000;2023-01-20T02:43:07;95376.69;;;1.13;62.22
33731;BME280;22931;48.636;9.000;2023-01-20T02:48:23;95390.72;;;1.12;62.35
33731;BME280;22931;48.636;9.000;2023-01-20T02:53:37;95396.66;;;1.12;62.59
33731;BME280;22931;48.636;9.000;2023-01-20T02:58:49;95406.53;;;1.10;62.22
33731;BME280;22931;48.636;9.000;2023-01-20T03:04:03;95400.56;;;1.10;62.24
33731;BME280;22931;48.636;9.000;2023-01-20T03:09:15;95409.69;;;1.07;62.17
33731;BME280;22931;48.636;9.000;2023-01-20T03:14:24;95413.13;;;1.03;62.24
33731;BME280;22931;48.636;9.000;2023-01-20T03:19:35;95419.88;;;1.04;62.50
33731;BME280;22931;48.636;9.000;2023-01-20T03:24:43;95418.31;;;1.03;62.30
33731;BME280;22931;48.636;9.000;2023-01-20T03:29:53;95412.09;;;1.04;62.97
33731;BME280;22931;48.636;9.000;2023-01-20T03:35:04;95426.00;;;1.08;62.76
33731;BME280;22931;48.636;9.000;2023-01-20T03:40:13;95438.47;;;1.06;62.58
33731;BME280;22931;48.636;9.000;2023-01-20T03:45:27;95431.00;;;1.04;62.60
33731;BME280;22931;48.636;9.000;2023-01-20T03:50:41;95442.88;;;1.05;62.84
33731;BME280;22931;48.636;9.000;2023-01-20T03:55:54;95449.41;;;1.03;62.25
33731;BME280;22931;48.636;9.000;2023-01-20T04:01:06;95444.81;;;1.00;62.38
33731;BME280;22931;48.636;9.000;2023-01-20T04:06:26;95447.88;;;1.02;63.00
33731;BME280;22931;48.636;9.000;2023-01-20T04:11:34;95445.75;;;1.04;62.79
33731;BME280;22931;48.636;9.000;2023-01-20T04:16:42;95455.56;;;1.07;63.29
33731;BME280;22931;48.636;9.000;2023-01-20T04:22:04;95457.78;;;1.13;62.54
33731;BME280;22931;48.636;9.000;2023-01-20T04:27:12;95464.22;;;1.16;62.91
33731;BME280;22931;48.636;9.000;2023-01-20T04:32:19;95466.97;;;1.19;63.52
33731;BME280;22931;48.636;9.000;2023-01-20T04:37:30;95471.91;;;1.21;63.79
33731;BME280;22931;48.636;9.000;2023-01-20T04:42:37;95484.38;;;1.19;63.76
33731;BME280;22931;48.636;9.000;2023-01-20T04:47:45;95488.47;;;1.20;63.60
33731;BME280;22931;48.636;9.000;2023-01-20T04:52:56;95492.06;;;1.24;63.58
33731;BME280;22931;48.636;9.000;2023-01-20T04:58:04;95499.31;;;1.22;63.49
33731;BME280;22931;48.636;9.000;2023-01-20T05:03:12;95506.06;;;1.23;63.69
33731;BME280;22931;48.636;9.000;2023-01-20T05:08:22;95511.44;;;1.26;63.88
33731;BME280;22931;48.636;9.000;2023-01-20T05:13:30;95518.94;;;1.28;63.76
33731;BME280;22931;48.636;9.000;2023-01-20T05:18:42;95523.56;;;1.31;63.67
33731;BME280;22931;48.636;9.000;2023-01-20T05:23:52;95524.81;;;1.33;64.24
33731;BME280;22931;48.636;9.000;2023-01-20T05:29:00;95521.16;;;1.34;64.08
33731;BME280;22931;48.636;9.000;2023-01-20T05:34:08;95526.06;;;1.36;63.92
33731;BME280;22931;48.636;9.000;2023-01-20T05:39:18;95547.75;;;1.40;63.74
33731;BME280;22931;48.636;9.000;2023-01-20T05:44:26;95544.44;;;1.53;64.29
33731;BME280;22931;48.636;9.000;2023-01-20T05:49:33;95555.25;;;1.42;63.52
33731;BME280;22931;48.636;9.000;2023-01-20T05:54:43;95565.41;;;1.38;63.38
33731;BME280;22931;48.636;9.000;2023-01-20T05:59:51;95570.19;;;1.31;63.42
33731;BME280;22931;48.636;9.000;2023-01-20T06:04:59;95573.41;;;1.23;62.89
33731;BME280;22931;48.636;9.000;2023-01-20T06:10:10;95580.50;;;1.17;63.22
33731;BME280;22931;48.636;9.000;2023-01-20T06:15:18;95576.72;;;1.10;63.03
33731;BME280;22931;48.636;9.000;2023-01-20T06:20:27;95586.81;;;1.11;63.22
33731;BME280;22931;48.636;9.000;2023-01-20T06:25:37;95587.47;;;1.17;63.63
33731;BME280;22931;48.636;9.000;2023-01-20T06:30:45;95588.00;;;1.19;63.45
33731;BME280;22931;48.636;9.000;2023-01-20T06:35:53;95610.25;;;1.20;63.23
33731;BME280;22931;48.636;9.000;2023-01-20T06:41:05;95611.31;;;1.19;63.19
33731;BME280;22931;48.636;9.000;2023-01-20T06:46:14;95618.16;;;1.10;62.70
33731;BME280;22931;48.636;9.000;2023-01-20T06:51:22;95614.09;;;1.04;62.92
33731;BME280;22931;48.636;9.000;2023-01-20T06:56:32;95630.50;;;0.99;62.53
33731;BME280;22931;48.636;9.000;2023-01-20T07:01:40;95627.47;;;0.92;62.81
33731;BME280;22931;48.636;9.000;2023-01-20T07:06:47;95642.84;;;0.84;62.55
33731;BME280;22931;48.636;9.000;2023-01-20T07:11:57;95650.47;;;0.75;62.44
33731;BME280;22931;48.636;9.000;2023-01-20T07:17:09;95655.78;;;0.65;62.21
33731;BME280;22931;48.636;9.000;2023-01-20T07:22:17;95663.41;;;0.51;62.37
33731;BME280;22931;48.636;9.000;2023-01-20T07:27:27;95670.75;;;0.44;62.58
33731;BME280;22931;48.636;9.000;2023-01-20T07:32:35;95683.94;;;0.19;62.07
33731;BME280;22931;48.636;9.000;2023-01-20T07:37:42;95689.91;;;-0.14;61.60
33731;BME280;22931;48.636;9.000;2023-01-20T07:42:52;95701.16;;;-0.34;62.12
33731;BME280;22931;48.636;9.000;2023-01-20T07:48:00;95705.06;;;-0.36;62.83
33731;BME280;22931;48.636;9.000;2023-01-20T07:53:08;95714.63;;;-0.32;63.19
33731;BME280;22931;48.636;9.000;2023-01-20T07:58:18;95721.50;;;-0.17;64.02
33731;BME280;22931;48.636;9.000;2023-01-20T08:03:25;95721.16;;;-0.11;64.35
33731;BME280;22931;48.636;9.000;2023-01-20T08:08:34;95735.38;;;-0.08;63.90
33731;BME280;22931;48.636;9.000;2023-01-20T08:13:44;95726.56;;;-0.07;64.00
33731;BME280;22931;48.636;9.000;2023-01-20T08:18:52;95733.22;;;0.04;64.98
33731;BME280;22931;48.636;9.000;2023-01-20T08:24:01;95750.34;;;-0.05;64.62
33731;BME280;22931;48.636;9.000;2023-01-20T08:29:12;95748.25;;;-0.03;64.83
33731;BME280;22931;48.636;9.000;2023-01-20T08:34:20;95759.38;;;-0.03;64.46
33731;BME280;22931;48.636;9.000;2023-01-20T08:39:28;95758.00;;;0.05;64.73
33731;BME280;22931;48.636;9.000;2023-01-20T08:44:38;95771.44;;;0.12;65.56
33731;BME280;22931;48.636;9.000;2023-01-20T08:49:46;95775.97;;;0.25;64.86
33731;BME280;22931;48.636;9.000;2023-01-20T08:54:53;95786.22;;;0.35;64.97
33731;BME280;22931;48.636;9.000;2023-01-20T09:00:08;95789.22;;;0.47;64.92
33731;BME280;22931;48.636;9.000;2023-01-20T09:05:17;95795.16;;;0.53;64.81
33731;BME280;22931;48.636;9.000;2023-01-20T09:10:26;95791.44;;;0.59;65.02
33731;BME280;22931;48.636;9.000;2023-01-20T09:15:36;95805.91;;;0.65;65.45
33731;BME280;22931;48.636;9.000;2023-01-20T09:20:43;95809.97;;;0.71;64.86
33731;BME280;22931;48.636;9.000;2023-01-20T09:25:51;95815.44;;;0.70;64.99
33731;BME280;22931;48.636;9.000;2023-01-20T09:31:04;95823.41;;;0.73;65.34
33731;BME280;22931;48.636;9.000;2023-01-20T09:36:12;95826.53;;;0.75;65.19
33731;BME280;22931;48.636;9.000;2023-01-20T09:41:26;95834.94;;;0.86;65.70
33731;BME280;22931;48.636;9.000;2023-01-20T09:47:03;95834.38;;;0.94;66.05
33731;BME280;22931;48.636;9.000;2023-01-20T09:52:31;95835.34;;;0.98;64.86
33731;BME280;22931;48.636;9.000;2023-01-20T09:58:06;95840.47;;;1.03;65.45
33731;BME280;22931;48.636;9.000;2023-01-20T10:03:21;95848.16;;;1.13;64.88
33731;BME280;22931;48.636;9.000;2023-01-20T10:08:35;95836.97;;;1.17;65.04
33731;BME280;22931;48.636;9.000;2023-01-20T10:14:08;95846.19;;;1.28;64.75
33731;BME280;22931;48.636;9.000;2023-01-20T10:19:27;95845.25;;;1.43;65.12
33731;BME280;22931;48.636;9.000;2023-01-20T10:24:41;95847.94;;;1.57;65.02
33731;BME280;22931;48.636;9.000;2023-01-20T10:29:57;95861.50;;;1.72;65.51
33731;BME280;22931;48.636;9.000;2023-01-20T10:35:15;95846.78;;;1.86;65.35
33731;BME280;22931;48.636;9.000;2023-01-20T10:40:31;95845.38;;;1.94;64.86
33731;BME280;22931;48.636;9.000;2023-01-20T10:45:54;95850.50;;;1.99;64.64
33731;BME280;22931;48.636;9.000;2023-01-20T10:51:12;95849.59;;;2.09;64.98
33731;BME280;22931;48.636;9.000;2023-01-20T10:56:36;95861.44;;;2.15;64.49
33731;BME280;22931;48.636;9.000;2023-01-20T11:01:49;95859.44;;;2.12;64.40
33731;BME280;22931;48.636;9.000;2023-01-20T11:07:17;95868.25;;;2.11;64.50
33731;BME280;22931;48.636;9.000;2023-01-20T11:12:28;95868.25;;;2.11;64.52
33731;BME280;22931;48.636;9.000;2023-01-20T11:17:40;95864.03;;;2.15;64.95
33731;BME280;22931;48.636;9.000;2023-01-20T11:22:50;95864.44;;;2.22;64.69
33731;BME280;22931;48.636;9.000;2023-01-20T11:27:57;95866.91;;;2.32;64.47
33731;BME280;22931;48.636;9.000;2023-01-20T11:33:07;95874.06;;;2.40;64.47
33731;BME280;22931;48.636;9.000;2023-01-20T11:38:27;95870.53;;;2.49;64.16
33731;BME280;22931;48.636;9.000;2023-01-20T11:43:35;95871.31;;;2.50;64.13
33731;BME280;22931;48.636;9.000;2023-01-20T11:48:44;95873.28;;;2.58;63.84
33731;BME280;22931;48.636;9.000;2023-01-20T11:54:06;95871.56;;;2.67;63.83
33731;BME280;22931;48.636;9.000;2023-01-20T11:59:18;95872.84;;;2.70;63.68
33731;BME280;22931;48.636;9.000;2023-01-20T12:04:48;95884.31;;;2.82;63.51
33731;BME280;22931;48.636;9.000;2023-01-20T12:10:12;95879.53;;;2.89;63.25
33731;BME280;22931;48.636;9.000;2023-01-20T12:15:23;95882.31;;;2.93;63.57
33731;BME280;22931;48.636;9.000;2023-01-20T12:20:36;95888.69;;;3.00;62.98
33731;BME280;22931;48.636;9.000;2023-01-20T12:26:02;95888.59;;;3.05;62.93
33731;BME280;22931;48.636;9.000;2023-01-20T12:31:12;95897.09;;;3.11;62.94
33731;BME280;22931;48.636;9.000;2023-01-20T12:36:34;95896.72;;;3.17;62.30
33731;BME280;22931;48.636;9.000;2023-01-20T12:42:00;95897.09;;;3.24;61.96
33731;BME280;22931;48.636;9.000;2023-01-20T12:47:24;95902.69;;;3.31;62.20
33731;BME280;22931;48.636;9.000;2023-01-20T12:52:45;95903.09;;;3.39;62.41
33731;BME280;22931;48.636;9.000;2023-01-20T12:58:07;95915.72;;;3.45;62.42
33731;BME280;22931;48.636;9.000;2023-01-20T13:03:33;95904.47;;;3.50;61.63
33731;BME280;22931;48.636;9.000;2023-01-20T13:08:51;95917.38;;;3.55;61.94
33731;BME280;22931;48.636;9.000;2023-01-20T13:14:10;95913.81;;;3.64;61.85
33731;BME280;22931;48.636;9.000;2023-01-20T13:19:27;95912.06;;;3.73;61.99
33731;BME280;22931;48.636;9.000;2023-01-20T13:24:35;95912.94;;;3.82;61.90
33731;BME280;22931;48.636;9.000;2023-01-20T13:29:58;95912.94;;;3.96;61.73
33731;BME280;22931;48.636;9.000;2023-01-20T13:35:40;95912.84;;;4.01;60.96
33731;BME280;22931;48.636;9.000;2023-01-20T13:40:51;95919.56;;;4.02;61.23
33731;BME280;22931;48.636;9.000;2023-01-20T13:51:49;95919.78;;;4.06;59.77
33731;BME280;22931;48.636;9.000;2023-01-20T14:02:34;95928.56;;;3.96;60.47
33731;BME280;22931;48.636;9.000;2023-01-20T14:07:45;95935.38;;;3.92;59.88
33731;BME280;22931;48.636;9.000;2023-01-20T14:12:53;95937.03;;;3.88;60.24
33731;BME280;22931;48.636;9.000;2023-01-20T14:18:00;95935.31;;;3.83;59.98
33731;BME280;22931;48.636;9.000;2023-01-20T14:23:42;95936.34;;;3.82;58.62
33731;BME280;22931;48.636;9.000;2023-01-20T14:28:51;95938.56;;;3.75;59.50
33731;BME280;22931;48.636;9.000;2023-01-20T14:34:02;95936.25;;;3.74;59.29
33731;BME280;22931;48.636;9.000;2023-01-20T14:39:18;95950.53;;;3.76;59.07
33731;BME280;22931;48.636;9.000;2023-01-20T14:44:27;95954.56;;;3.69;58.93
33731;BME280;22931;48.636;9.000;2023-01-20T14:49:36;95955.53;;;3.73;56.38
33731;BME280;22931;48.636;9.000;2023-01-20T14:54:48;95957.81;;;3.61;58.39
33731;BME280;22931;48.636;9.000;2023-01-20T15:00:11;95969.00;;;3.61;57.96
33731;BME280;22931;48.636;9.000;2023-01-20T15:05:22;95969.78;;;3.62;59.09
33731;BME280;22931;48.636;9.000;2023-01-20T15:10:35;95970.56;;;3.62;58.80
33731;BME280;22931;48.636;9.000;2023-01-20T15:15:42;95964.28;;;3.63;59.09
33731;BME280;22931;48.636;9.000;2023-01-20T15:20:54;95966.13;;;3.63;58.79
33731;BME280;22931;48.636;9.000;2023-01-20T15:26:27;95966.88;;;3.63;58.20
33731;BME280;22931;48.636;9.000;2023-01-20T15:31:35;95974.50;;;3.60;58.70
33731;BME280;22931;48.636;9.000;2023-01-20T15:36:44;95980.28;;;3.57;58.67
33731;BME280;22931;48.636;9.000;2023-01-20T15:41:54;95983.44;;;3.54;58.47
33731;BME280;22931;48.636;9.000;2023-01-20T15:47:04;95985.19;;;3.58;56.87
33731;BME280;22931;48.636;9.000;2023-01-20T15:52:12;95982.88;;;3.43;58.48
33731;BME280;22931;48.636;9.000;2023-01-20T15:57:22;95985.72;;;3.42;58.71
33731;BME280;22931;48.636;9.000;2023-01-20T16:02:29;95994.41;;;3.37;58.62
33731;BME280;22931;48.636;9.000;2023-01-20T16:07:38;96000.44;;;3.32;58.59
33731;BME280;22931;48.636;9.000;2023-01-20T16:12:50;96005.44;;;3.29;58.64
33731;BME280;22931;48.636;9.000;2023-01-20T16:17:57;96003.78;;;3.19;58.49
33731;BME280;22931;48.636;9.000;2023-01-20T16:23:05;96011.22;;;3.07;58.20
33731;BME280;22931;48.636;9.000;2023-01-20T16:28:18;96018.34;;;2.83;58.06
33731;BME280;22931;48.636;9.000;2023-01-20T16:33:27;96013.84;;;2.51;58.17
33731;BME280;22931;48.636;9.000;2023-01-20T16:38:35;96021.13;;;2.31;58.44
33731;BME280;22931;48.636;9.000;2023-01-20T16:43:45;96025.19;;;2.13;58.83
33731;BME280;22931;48.636;9.000;2023-01-20T16:48:53;96031.00;;;2.05;59.19
33731;BME280;22931;48.636;9.000;2023-01-20T16:54:03;96033.88;;;2.04;59.40
33731;BME280;22931;48.636;9.000;2023-01-20T16:59:13;96037.00;;;2.00;59.66
33731;BME280;22931;48.636;9.000;2023-01-20T17:04:21;96042.00;;;1.97;59.44
33731;BME280;22931;48.636;9.000;2023-01-20T17:09:28;96047.00;;;1.88;59.48
33731;BME280;22931;48.636;9.000;2023-01-20T17:14:38;96053.59;;;1.76;59.46
33731;BME280;22931;48.636;9.000;2023-01-20T17:19:46;96047.69;;;1.70;59.86
33731;BME280;22931;48.636;9.000;2023-01-20T17:24:53;96050.28;;;1.70;59.94
33731;BME280;22931;48.636;9.000;2023-01-20T17:30:05;96055.47;;;1.70;59.78
33731;BME280;22931;48.636;9.000;2023-01-20T17:35:14;96057.06;;;1.66;59.93
33731;BME280;22931;48.636;9.000;2023-01-20T17:40:22;96064.66;;;1.58;59.64
33731;BME280;22931;48.636;9.000;2023-01-20T17:45:32;96069.97;;;1.43;59.31
33731;BME280;22931;48.636;9.000;2023-01-20T17:50:40;96068.81;;;1.20;59.20
33731;BME280;22931;48.636;9.000;2023-01-20T17:55:47;96079.59;;;0.98;59.50
33731;BME280;22931;48.636;9.000;2023-01-20T18:01:14;96076.31;;;0.83;59.49
33731;BME280;22931;48.636;9.000;2023-01-20T18:06:23;96079.25;;;0.61;59.57
33731;BME280;22931;48.636;9.000;2023-01-20T18:11:33;96075.97;;;0.45;59.71
33731;BME280;22931;48.636;9.000;2023-01-20T18:16:44;96081.16;;;0.45;60.00
33731;BME280;22931;48.636;9.000;2023-01-20T18:21:53;96087.34;;;0.44;60.17
33731;BME280;22931;48.636;9.000;2023-01-20T18:27:01;96092.50;;;0.49;60.44
33731;BME280;22931;48.636;9.000;2023-01-20T18:32:11;96091.22;;;0.52;60.46
33731;BME280;22931;48.636;9.000;2023-01-20T18:37:18;96089.41;;;0.52;60.23
33731;BME280;22931;48.636;9.000;2023-01-20T18:42:26;96086.84;;;0.47;59.98
33731;BME280;22931;48.636;9.000;2023-01-20T18:47:36;96078.03;;;0.48;60.23
33731;BME280;22931;48.636;9.000;2023-01-20T18:52:44;96085.53;;;0.45;60.03
33731;BME280;22931;48.636;9.000;2023-01-20T18:57:51;96093.03;;;0.46;60.21
33731;BME280;22931;48.636;9.000;2023-01-20T19:03:02;96098.78;;;0.38;59.94
33731;BME280;22931;48.636;9.000;2023-01-20T19:08:09;96106.28;;;0.30;59.52
33731;BME280;22931;48.636;9.000;2023-01-20T19:13:16;96099.13;;;0.07;60.02
33731;BME280;22931;48.636;9.000;2023-01-20T19:18:27;96104.53;;;0.10;60.56
33731;BME280;22931;48.636;9.000;2023-01-20T19:23:34;96103.47;;;0.26;60.55
33731;BME280;22931;48.636;9.000;2023-01-20T19:28:42;96104.25;;;0.22;60.33
33731;BME280;22931;48.636;9.000;2023-01-20T19:33:52;96107.88;;;0.26;60.91
33731;BME280;22931;48.636;9.000;2023-01-20T19:38:59;96114.81;;;0.40;60.65
33731;BME280;22931;48.636;9.000;2023-01-20T19:44:09;96115.31;;;0.37;60.50
33731;BME280;22931;48.636;9.000;2023-01-20T19:49:21;96112.72;;;0.42;60.88
33731;BME280;22931;48.636;9.000;2023-01-20T19:54:28;96111.91;;;0.52;60.37
33731;BME280;22931;48.636;9.000;2023-01-20T19:59:37;96107.28;;;0.44;60.64
33731;BME280;22931;48.636;9.000;2023-01-20T20:04:48;96112.22;;;0.40;60.58
33731;BME280;22931;48.636;9.000;2023-01-20T20:09:55;96107.06;;;0.35;60.63
33731;BME280;22931;48.636;9.000;2023-01-20T20:15:04;96117.41;;;0.30;60.73
33731;BME280;22931;48.636;9.000;2023-01-20T20:20:15;96108.88;;;0.30;60.91
33731;BME280;22931;48.636;9.000;2023-01-20T20:25:22;96117.94;;;0.22;60.77
33731;BME280;22931;48.636;9.000;2023-01-20T20:30:31;96119.00;;;0.16;60.35
33731;BME280;22931;48.636;9.000;2023-01-20T20:35:41;96121.59;;;0.11;60.45
33731;BME280;22931;48.636;9.000;2023-01-20T20:40:48;96127.00;;;0.20;60.17
33731;BME280;22931;48.636;9.000;2023-01-20T20:46:03;96136.84;;;0.08;60.65
33731;BME280;22931;48.636;9.000;2023-01-20T20:51:15;96133.50;;;0.12;60.85
33731;BME280;22931;48.636;9.000;2023-01-20T20:56:24;96127.78;;;0.15;60.90
33731;BME280;22931;48.636;9.000;2023-01-20T21:01:35;96138.66;;;0.22;61.13
33731;BME280;22931;48.636;9.000;2023-01-20T21:06:45;96142.00;;;0.33;61.35
33731;BME280;22931;48.636;9.000;2023-01-20T21:11:53;96141.47;;;0.41;61.31
33731;BME280;22931;48.636;9.000;2023-01-20T21:17:00;96140.16;;;0.48;61.27
33731;BME280;22931;48.636;9.000;2023-01-20T21:22:10;96146.31;;;0.57;60.91
33731;BME280;22931;48.636;9.000;2023-01-20T21:27:18;96148.13;;;0.62;61.30
33731;BME280;22931;48.636;9.000;2023-01-20T21:32:26;96148.38;;;0.65;61.02
33731;BME280;22931;48.636;9.000;2023-01-20T21:37:37;96157.38;;;0.73;61.07
33731;BME280;22931;48.636;9.000;2023-01-20T21:42:44;96156.63;;;0.78;61.04
